Time,TemperatureF,DewpointF,PressureIn,WindDirection,WindDirectionDegrees,WindSpeedMPH,WindSpeedGustMPH,Humidity,HourlyPrecipIn,Conditions,Clouds,dailyrainin,SoftwareType,DateUTC
2013-05-05 00:02:00,73.0,69.0,-100.00,ENE,61,5.0,7.0,87,0.00,,,0.01,,2013-05-05 10:02:00,
2013-05-05 00:12:00,73.0,69.0,-100.00,ENE,61,5.0,7.0,87,0.00,,,0.01,,2013-05-05 10:12:00,
2013-05-05 00:22:00,73.0,69.0,-100.00,ENE,61,5.0,7.0,87,0.00,,,0.01,,2013-05-05 10:22:00,
2013-05-05 00:32:00,73.0,69.0,-100.00,ENE,61,5.0,7.0,87,0.00,,,0.01,,2013-05-05 10:32:00,
2013-05-05 00:41:00,72.0,69.0,-100.00,NNE,17,5.0,7.0,90,0.00,,,-99.99,,2013-05-05 10:41:00,
2013-05-05 01:01:00,72.0,69.0,-100.00,NNE,17,5.0,7.0,90,0.00,,,-99.99,,2013-05-05 11:01:00,
2013-05-05 01:12:00,72.0,69.0,-100.00,NNE,17,5.0,7.0,90,0.00,,,-99.99,,2013-05-05 11:12:00,
2013-05-05 01:21:00,72.0,69.0,-100.00,NNE,17,5.0,7.0,90,0.00,,,-99.99,,2013-05-05 11:21:00,
2013-05-05 01:32:00,72.0,69.0,-100.00,NNE,17,5.0,7.0,90,0.00,,,-99.99,,2013-05-05 11:32:00,
2013-05-05 01:41:00,71.0,69.0,-100.00,NW,321,3.0,5.0,92,0.00,,,0.01,,2013-05-05 11:41:00,
2013-05-05 02:02:00,71.0,69.0,-100.00,NW,321,3.0,5.0,92,0.00,,,0.01,,2013-05-05 12:02:00,
2013-05-05 02:11:00,71.0,69.0,-100.00,NW,321,3.0,5.0,92,0.00,,,0.01,,2013-05-05 12:11:00,
2013-05-05 02:21:00,71.0,69.0,-100.00,NW,321,3.0,5.0,92,0.00,,,0.01,,2013-05-05 12:21:00,
2013-05-05 02:31:00,71.0,69.0,-100.00,NW,321,3.0,5.0,92,0.00,,,0.01,,2013-05-05 12:31:00,
2013-05-05 02:41:00,71.0,69.0,-100.00,NNW,333,2.0,5.0,94,0.00,,,0.01,,2013-05-05 12:41:00,
2013-05-05 03:01:00,71.0,69.0,-100.00,NNW,333,2.0,5.0,94,0.00,,,0.01,,2013-05-05 13:01:00,
2013-05-05 03:11:00,71.0,69.0,-100.00,NNW,333,2.0,5.0,94,0.00,,,0.01,,2013-05-05 13:11:00,
2013-05-05 03:21:00,71.0,69.0,-100.00,NNW,333,2.0,5.0,94,0.00,,,0.01,,2013-05-05 13:21:00,
2013-05-05 03:32:00,71.0,69.0,-100.00,NNW,333,2.0,5.0,94,0.00,,,0.01,,2013-05-05 13:32:00,
2013-05-05 03:41:00,71.0,70.0,-100.00,NNW,332,3.0,5.0,97,0.00,,,0.01,,2013-05-05 13:41:00,
2013-05-05 04:01:00,71.0,70.0,-100.00,NNW,332,3.0,5.0,97,0.00,,,0.01,,2013-05-05 14:01:00,
2013-05-05 04:11:00,71.0,70.0,-100.00,NNW,332,3.0,5.0,97,0.00,,,0.01,,2013-05-05 14:11:00,
2013-05-05 04:21:00,71.0,70.0,-100.00,NNW,332,3.0,5.0,97,0.00,,,0.01,,2013-05-05 14:21:00,
2013-05-05 04:31:00,71.0,70.0,-100.00,NNW,332,3.0,5.0,97,0.00,,,0.01,,2013-05-05 14:31:00,
2013-05-05 04:41:00,71.0,71.0,-100.00,West,278,2.0,5.0,99,0.00,,,0.01,,2013-05-05 14:41:00,
2013-05-05 05:01:00,71.0,71.0,-100.00,West,278,2.0,5.0,99,0.00,,,0.01,,2013-05-05 15:01:00,
2013-05-05 05:11:00,71.0,71.0,-100.00,West,278,2.0,5.0,99,0.00,,,0.01,,2013-05-05 15:11:00,
2013-05-05 05:21:00,71.0,71.0,-100.00,West,278,2.0,5.0,99,0.00,,,0.01,,2013-05-05 15:21:00,
2013-05-05 05:32:00,71.0,71.0,-100.00,West,278,2.0,5.0,99,0.00,,,0.01,,2013-05-05 15:32:00,
2013-05-05 05:41:00,70.0,70.0,-100.00,NW,321,3.0,5.0,100,0.01,,,0.02,,2013-05-05 15:41:00,
2013-05-05 06:03:00,70.0,70.0,-100.00,NW,321,3.0,5.0,100,0.01,,,0.02,,2013-05-05 16:03:00,
2013-05-05 06:12:00,70.0,70.0,-100.00,NW,321,3.0,5.0,100,0.01,,,0.02,,2013-05-05 16:12:00,
2013-05-05 06:22:00,70.0,70.0,-100.00,NW,321,3.0,5.0,100,0.01,,,0.02,,2013-05-05 16:22:00,
2013-05-05 06:32:00,70.0,70.0,-100.00,NW,321,3.0,5.0,100,0.01,,,0.02,,2013-05-05 16:32:00,
2013-05-05 06:41:00,70.0,70.0,-100.00,NNW,345,2.0,4.0,100,0.00,,,0.02,,2013-05-05 16:41:00,
2013-05-05 07:02:00,70.0,70.0,-100.00,NNW,345,2.0,4.0,100,0.00,,,0.02,,2013-05-05 17:02:00,
2013-05-05 07:12:00,70.0,70.0,-100.00,NNW,345,2.0,4.0,100,0.00,,,0.02,,2013-05-05 17:12:00,
2013-05-05 07:23:00,70.0,70.0,-100.00,NNW,345,2.0,4.0,100,0.00,,,0.02,,2013-05-05 17:23:00,
2013-05-05 07:31:00,70.0,70.0,-100.00,NNW,345,2.0,4.0,100,0.00,,,0.02,,2013-05-05 17:31:00,
2013-05-05 07:41:00,72.0,72.0,-100.00,North,351,3.0,7.0,100,0.00,,,0.02,,2013-05-05 17:41:00,
2013-05-05 08:01:00,72.0,72.0,-100.00,North,351,3.0,7.0,100,0.00,,,0.02,,2013-05-05 18:01:00,
2013-05-05 08:11:00,72.0,72.0,-100.00,North,351,3.0,7.0,100,0.00,,,0.02,,2013-05-05 18:11:00,
2013-05-05 08:21:00,72.0,72.0,-100.00,North,351,3.0,7.0,100,0.00,,,0.02,,2013-05-05 18:21:00,
2013-05-05 08:31:00,72.0,72.0,-100.00,North,351,3.0,7.0,100,0.00,,,0.02,,2013-05-05 18:31:00,
2013-05-05 08:41:00,72.0,72.0,-100.00,ESE,119,9.0,13.0,100,0.07,,,0.09,,2013-05-05 18:41:00,
2013-05-05 09:01:00,72.0,72.0,-100.00,ESE,119,9.0,13.0,100,0.07,,,0.09,,2013-05-05 19:01:00,
2013-05-05 09:11:00,72.0,72.0,-100.00,ESE,119,9.0,13.0,100,0.07,,,0.09,,2013-05-05 19:11:00,
2013-05-05 09:21:00,72.0,72.0,-100.00,ESE,119,9.0,13.0,100,0.07,,,0.09,,2013-05-05 19:21:00,
2013-05-05 09:32:00,72.0,72.0,-100.00,ESE,119,9.0,13.0,100,0.07,,,0.09,,2013-05-05 19:32:00,
2013-05-05 09:41:00,71.0,71.0,-100.00,ENE,72,4.0,10.0,100,0.11,,,0.20,,2013-05-05 19:41:00,
2013-05-05 10:01:00,71.0,71.0,-100.00,ENE,72,4.0,10.0,100,0.11,,,0.20,,2013-05-05 20:01:00,
2013-05-05 10:11:00,71.0,71.0,-100.00,ENE,72,4.0,10.0,100,0.11,,,0.20,,2013-05-05 20:11:00,
2013-05-05 10:21:00,71.0,71.0,-100.00,ENE,72,4.0,10.0,100,0.11,,,0.20,,2013-05-05 20:21:00,
2013-05-05 10:31:00,71.0,71.0,-100.00,ENE,72,4.0,10.0,100,0.11,,,0.20,,2013-05-05 20:31:00,
2013-05-05 10:41:00,71.0,71.0,-100.00,SW,220,4.0,10.0,100,0.05,,,0.25,,2013-05-05 20:41:00,
2013-05-05 11:01:00,71.0,71.0,-100.00,SW,220,4.0,10.0,100,0.05,,,0.25,,2013-05-05 21:01:00,
2013-05-05 11:11:00,71.0,71.0,-100.00,SW,220,4.0,10.0,100,0.05,,,0.25,,2013-05-05 21:11:00,
2013-05-05 11:21:00,71.0,71.0,-100.00,SW,220,4.0,10.0,100,0.05,,,0.25,,2013-05-05 21:21:00,
2013-05-05 11:32:00,71.0,71.0,-100.00,SW,220,4.0,10.0,100,0.05,,,0.25,,2013-05-05 21:32:00,
2013-05-05 11:41:00,75.0,75.0,-100.00,SSW,211,5.0,9.0,100,0.01,,,0.26,,2013-05-05 21:41:00,
2013-05-05 12:02:00,75.0,75.0,-100.00,SSW,211,5.0,9.0,100,0.01,,,0.26,,2013-05-05 22:02:00,
2013-05-05 12:12:00,75.0,75.0,-100.00,SSW,211,5.0,9.0,100,0.01,,,0.26,,2013-05-05 22:12:00,
2013-05-05 12:22:00,75.0,75.0,-100.00,SSW,211,5.0,9.0,100,0.01,,,0.26,,2013-05-05 22:22:00,
2013-05-05 12:33:00,75.0,75.0,-100.00,SSW,211,5.0,9.0,100,0.01,,,0.26,,2013-05-05 22:33:00,
2013-05-05 12:41:00,74.0,74.0,-100.00,SSW,208,5.0,12.0,100,0.00,,,0.26,,2013-05-05 22:41:00,
2013-05-05 13:02:00,74.0,74.0,-100.00,SSW,208,5.0,12.0,100,0.00,,,0.26,,2013-05-05 23:02:00,
2013-05-05 13:11:00,74.0,74.0,-100.00,SSW,208,5.0,12.0,100,0.00,,,0.26,,2013-05-05 23:11:00,
2013-05-05 13:21:00,74.0,74.0,-100.00,SSW,208,5.0,12.0,100,0.00,,,0.26,,2013-05-05 23:21:00,
2013-05-05 13:31:00,74.0,74.0,-100.00,SSW,208,5.0,12.0,100,0.00,,,0.26,,2013-05-05 23:31:00,
2013-05-05 13:41:00,74.0,74.0,-100.00,SW,216,8.0,16.0,100,0.13,,,0.39,,2013-05-05 23:41:00,
2013-05-05 14:01:00,74.0,74.0,-100.00,SW,216,8.0,16.0,100,0.13,,,0.39,,2013-05-06 00:01:00,
2013-05-05 14:11:00,74.0,74.0,-100.00,SW,216,8.0,16.0,100,0.13,,,0.39,,2013-05-06 00:11:00,
2013-05-05 14:21:00,74.0,74.0,-100.00,SW,216,8.0,16.0,100,0.13,,,0.39,,2013-05-06 00:21:00,
2013-05-05 14:31:00,74.0,74.0,-100.00,SW,216,8.0,16.0,100,0.13,,,0.39,,2013-05-06 00:31:00,
2013-05-05 14:41:00,75.0,75.0,-100.00,SW,217,8.0,17.0,100,0.00,,,0.39,,2013-05-06 00:41:00,
2013-05-05 15:01:00,75.0,75.0,-100.00,SW,217,8.0,17.0,100,0.00,,,0.39,,2013-05-06 01:01:00,
2013-05-05 15:11:00,75.0,75.0,-100.00,SW,217,8.0,17.0,100,0.00,,,0.39,,2013-05-06 01:11:00,
2013-05-05 15:21:00,75.0,75.0,-100.00,SW,217,8.0,17.0,100,0.00,,,0.39,,2013-05-06 01:21:00,
2013-05-05 15:31:00,75.0,75.0,-100.00,SW,217,8.0,17.0,100,0.00,,,0.39,,2013-05-06 01:31:00,
2013-05-05 15:41:00,75.0,74.0,-100.00,SW,230,8.0,16.0,98,0.00,,,0.39,,2013-05-06 01:41:00,
2013-05-05 16:01:00,75.0,74.0,-100.00,SW,230,8.0,16.0,98,0.00,,,0.39,,2013-05-06 02:01:00,
2013-05-05 16:11:00,75.0,74.0,-100.00,SW,230,8.0,16.0,98,0.00,,,0.39,,2013-05-06 02:11:00,
2013-05-05 16:21:00,75.0,74.0,-100.00,SW,230,8.0,16.0,98,0.00,,,0.39,,2013-05-06 02:21:00,
2013-05-05 16:32:00,75.0,74.0,-100.00,SW,230,8.0,16.0,98,0.00,,,0.39,,2013-05-06 02:32:00,
2013-05-05 16:41:00,75.0,73.0,-100.00,SW,229,6.0,14.0,94,0.00,,,0.39,,2013-05-06 02:41:00,
2013-05-05 17:01:00,75.0,73.0,-100.00,SW,229,6.0,14.0,94,0.00,,,0.39,,2013-05-06 03:01:00,
2013-05-05 17:11:00,75.0,73.0,-100.00,SW,229,6.0,14.0,94,0.00,,,0.39,,2013-05-06 03:11:00,
2013-05-05 17:22:00,75.0,73.0,-100.00,SW,229,6.0,14.0,94,0.00,,,0.39,,2013-05-06 03:22:00,
2013-05-05 17:33:00,75.0,73.0,-100.00,SW,229,6.0,14.0,94,0.00,,,0.39,,2013-05-06 03:33:00,
2013-05-05 17:41:00,75.0,72.0,-100.00,SSW,212,6.0,12.0,90,0.00,,,0.39,,2013-05-06 03:41:00,
2013-05-05 18:02:00,75.0,72.0,-100.00,SSW,212,6.0,12.0,90,0.00,,,0.39,,2013-05-06 04:02:00,
2013-05-05 18:12:00,75.0,72.0,-100.00,SSW,212,6.0,12.0,90,0.00,,,0.39,,2013-05-06 04:12:00,
2013-05-05 18:23:00,75.0,72.0,-100.00,SSW,212,6.0,12.0,90,0.00,,,0.39,,2013-05-06 04:23:00,
2013-05-05 18:32:00,75.0,72.0,-100.00,SSW,212,6.0,12.0,90,0.00,,,0.39,,2013-05-06 04:32:00,
2013-05-05 18:41:00,74.0,71.0,-100.00,SSW,212,3.0,11.0,89,0.00,,,0.39,,2013-05-06 04:41:00,
2013-05-05 19:02:00,74.0,71.0,-100.00,SSW,212,3.0,11.0,89,0.00,,,0.39,,2013-05-06 05:02:00,
2013-05-05 19:12:00,74.0,71.0,-100.00,SSW,212,3.0,11.0,89,0.00,,,0.39,,2013-05-06 05:12:00,
2013-05-05 19:22:00,74.0,71.0,-100.00,SSW,212,3.0,11.0,89,0.00,,,0.39,,2013-05-06 05:22:00,
2013-05-05 19:32:00,74.0,71.0,-100.00,SSW,212,3.0,11.0,89,0.00,,,0.39,,2013-05-06 05:32:00,
2013-05-05 19:41:00,73.0,70.0,-100.00,West,277,4.0,9.0,89,0.00,,,0.39,,2013-05-06 05:41:00,
2013-05-05 20:02:00,73.0,70.0,-100.00,West,277,4.0,9.0,89,0.00,,,0.39,,2013-05-06 06:02:00,
2013-05-05 20:12:00,73.0,70.0,-100.00,West,277,4.0,9.0,89,0.00,,,0.39,,2013-05-06 06:12:00,
2013-05-05 20:21:00,73.0,70.0,-100.00,West,277,4.0,9.0,89,0.00,,,0.39,,2013-05-06 06:21:00,
2013-05-05 20:31:00,73.0,70.0,-100.00,West,277,4.0,9.0,89,0.00,,,0.39,,2013-05-06 06:31:00,
2013-05-05 20:41:00,72.0,70.0,-100.00,NNW,327,4.0,10.0,93,0.01,,,0.40,,2013-05-06 06:41:00,
2013-05-05 21:01:00,72.0,70.0,-100.00,NNW,327,4.0,10.0,93,0.01,,,0.40,,2013-05-06 07:01:00,
2013-05-05 21:11:00,72.0,70.0,-100.00,NNW,327,4.0,10.0,93,0.01,,,0.40,,2013-05-06 07:11:00,
2013-05-05 21:22:00,72.0,70.0,-100.00,NNW,327,4.0,10.0,93,0.01,,,0.40,,2013-05-06 07:22:00,
2013-05-05 21:31:00,72.0,70.0,-100.00,NNW,327,4.0,10.0,93,0.01,,,0.40,,2013-05-06 07:31:00,
2013-05-05 21:41:00,70.0,69.0,-100.00,NNW,332,8.0,13.0,98,0.02,,,0.41,,2013-05-06 07:41:00,
2013-05-05 22:01:00,70.0,69.0,-100.00,NNW,332,8.0,13.0,98,0.02,,,0.41,,2013-05-06 08:01:00,
2013-05-05 22:12:00,70.0,69.0,-100.00,NNW,332,8.0,13.0,98,0.02,,,0.41,,2013-05-06 08:12:00,
2013-05-05 22:22:00,70.0,69.0,-100.00,NNW,332,8.0,13.0,98,0.02,,,0.41,,2013-05-06 08:22:00,
2013-05-05 22:31:00,70.0,69.0,-100.00,NNW,332,8.0,13.0,98,0.02,,,0.41,,2013-05-06 08:31:00,
2013-05-05 22:41:00,69.0,69.0,-100.00,NW,317,4.0,12.0,100,0.08,,,0.49,,2013-05-06 08:41:00,
2013-05-05 23:01:00,69.0,69.0,-100.00,NW,317,4.0,12.0,100,0.08,,,0.49,,2013-05-06 09:01:00,
2013-05-05 23:11:00,69.0,69.0,-100.00,NW,317,4.0,12.0,100,0.08,,,0.49,,2013-05-06 09:11:00,
2013-05-05 23:22:00,69.0,69.0,-100.00,NW,317,4.0,12.0,100,0.08,,,0.49,,2013-05-06 09:22:00,
2013-05-05 23:32:00,69.0,69.0,-100.00,NW,317,4.0,12.0,100,0.08,,,0.49,,2013-05-06 09:32:00,
2013-05-05 23:41:00,69.0,69.0,-100.00,NNW,340,4.0,8.0,100,0.00,,,0.49,,2013-05-06 09:41:00,